Time;durP1;ratioP1;P1;durP2;ratioP2;P2;SDS_P1;SDS_P2;PMS_P1;PMS_P2;Temp;Humidity;BMP_temperature;BMP_pressure;BME280_temperature;BME280_humidity;BME280_pressure;Samples;Min_cycle;Max_cycle;Signal;HPM_P1;HPM_P2
2022/11/02 00:01:40;;;;;;;12.80;7.90;;;;;;;5.12;70.62;98843.55;102152;1299;61150;-27
2022/11/02 00:04:08;;;;;;;12.70;6.70;;;;;;;4.92;70.88;98840.77;102076;1299;74629;-25
2022/11/02 00:06:35;;;;;;;17.80;8.20;;;;;;;4.79;71.87;98845.38;102396;1299;75883;-24
2022/11/02 00:09:06;;;;;;;12.70;5.50;;;;;;;4.66;72.37;98840.98;102385;1299;74396;-26
2022/11/02 00:11:33;;;;;;;13.50;5.80;;;;;;;5.16;72.71;98843.47;102160;1299;61930;-26
2022/11/02 00:14:00;;;;;;;17.60;6.60;;;;;;;5.85;71.36;98844.12;102386;1299;61637;-25
2022/11/02 00:16:28;;;;;;;14.60;7.40;;;;;;;6.02;70.74;98843.88;102349;1298;74650;-25
2022/11/02 00:18:56;;;;;;;17.90;8.60;;;;;;;5.93;71.31;98846.88;102361;1299;75630;-25
2022/11/02 00:21:24;;;;;;;19.90;9.60;;;;;;;5.71;71.50;98846.19;102352;1294;74181;-24
2022/11/02 00:23:53;;;;;;;16.00;7.70;;;;;;;5.46;72.35;98847.44;102340;1299;61987;-24
2022/11/02 00:26:21;;;;;;;13.30;7.20;;;;;;;5.25;74.02;98847.92;102078;1301;61916;-24
2022/11/02 00:28:48;;;;;;;19.10;8.90;;;;;;;5.06;74.73;98851.45;102293;1299;74376;-24
2022/11/02 00:31:16;;;;;;;15.90;7.90;;;;;;;4.90;75.47;98850.86;102352;1299;75732;-24
2022/11/02 00:33:44;;;;;;;13.70;5.60;;;;;;;4.78;76.62;98854.02;102388;1298;73069;-25
2022/11/02 00:36:11;;;;;;;21.00;6.60;;;;;;;5.25;76.63;98853.05;102032;1299;61713;-24
2022/11/02 00:38:40;;;;;;;16.30;7.80;;;;;;;5.86;75.27;98852.48;102336;1298;61911;-25
2022/11/02 00:41:08;;;;;;;15.30;7.90;;;;;;;5.97;74.78;98849.88;102373;1297;73694;-25
2022/11/02 00:43:35;;;;;;;15.40;8.00;;;;;;;5.83;75.40;98846.63;102376;1299;75669;-24
2022/11/02 00:46:04;;;;;;;18.70;8.90;;;;;;;5.64;76.81;98846.31;102374;1299;74461;-24
2022/11/02 00:48:32;;;;;;;14.70;8.00;;;;;;;5.43;77.77;98842.07;102336;1298;61889;-24
2022/11/02 00:51:00;;;;;;;18.90;8.60;;;;;;;5.27;78.77;98841.94;102373;1299;61691;-24
2022/11/02 00:53:28;;;;;;;13.80;6.80;;;;;;;5.13;80.34;98839.14;102419;1298;74507;-24
2022/11/02 00:55:55;;;;;;;13.20;7.90;;;;;;;5.57;80.93;98838.14;102425;1291;74680;-25
2022/11/02 00:58:22;;;;;;;13.00;7.90;;;;;;;6.12;79.59;98834.75;102330;1299;74472;-24
2022/11/02 01:00:50;;;;;;;16.10;7.70;;;;;;;6.23;78.66;98836.98;102364;1298;61736;-24
2022/11/02 01:03:17;;;;;;;16.80;9.20;;;;;;;6.07;79.47;98838.56;102308;1299;61791;-24
2022/11/02 01:05:45;;;;;;;16.60;10.00;;;;;;;5.86;80.67;98836.77;102377;1291;74424;-25
2022/11/02 01:08:12;;;;;;;17.70;9.00;;;;;;;5.68;81.88;98833.98;102399;1299;75660;-25
2022/11/02 01:10:40;;;;;;;17.80;7.40;;;;;;;5.54;82.81;98831.59;102413;1299;74112;-24
2022/11/02 01:13:14;;;;;;;16.70;8.60;;;;;;;5.98;82.66;98833.43;102296;1297;61960;-24
2022/11/02 01:15:42;;;;;;;15.80;8.50;;;;;;;6.48;81.10;98832.77;102360;1299;61587;-24
2022/11/02 01:18:09;;;;;;;18.40;9.50;;;;;;;6.51;80.46;98832.89;102263;1292;74736;-24
2022/11/02 01:20:36;;;;;;;19.40;9.30;;;;;;;6.34;80.91;98838.30;102381;1299;75677;-24
2022/11/02 01:23:04;;;;;;;15.30;9.50;;;;;;;6.13;82.25;98840.41;102403;1291;74163;-24
2022/11/02 01:25:31;;;;;;;20.10;10.00;;;;;;;5.93;83.66;98840.63;102374;1292;61746;-24
2022/11/02 01:27:59;;;;;;;17.20;8.30;;;;;;;5.78;84.72;98844.88;102392;1296;61575;-24
2022/11/02 01:30:26;;;;;;;17.30;9.50;;;;;;;6.19;84.81;98843.11;102394;1291;74431;-24
2022/11/02 01:32:53;;;;;;;15.60;9.00;;;;;;;6.67;83.05;98839.59;102387;1297;75754;-25
2022/11/02 01:35:20;;;;;;;21.20;10.80;;;;;;;6.68;82.52;98843.43;102402;1298;74129;-24
2022/11/02 01:37:47;;;;;;;20.10;11.00;;;;;;;6.52;83.66;98839.02;102237;1294;61798;-24
2022/11/02 01:40:15;;;;;;;22.90;12.10;;;;;;;6.33;85.13;98836.84;102294;1298;61759;-24
2022/11/02 01:42:42;;;;;;;17.60;7.80;;;;;;;6.22;86.83;98835.84;102275;1299;74671;-25
2022/11/02 01:45:12;;;;;;;19.00;10.30;;;;;;;6.67;87.86;98839.01;102170;1300;75781;-24
2022/11/02 01:47:41;;;;;;;16.50;10.30;;;;;;;7.22;86.81;98841.30;102365;1299;74243;-24
2022/11/02 01:50:15;;;;;;;18.70;10.80;;;;;;;7.38;86.50;98846.09;102315;1301;61133;-24
2022/11/02 01:52:42;;;;;;;24.70;12.70;;;;;;;7.25;87.05;98844.48;102300;1298;61903;-25
2022/11/02 01:55:23;;;;;;;25.20;12.90;;;;;;;7.12;88.83;98845.42;102334;1299;74453;-24
2022/11/02 01:57:59;;;;;;;23.60;10.80;;;;;;;7.11;89.87;98850.02;102295;1302;74716;-24
2022/11/02 02:00:26;;;;;;;25.10;11.00;;;;;;;7.69;88.74;98852.49;102183;1294;74303;-24
2022/11/02 02:03:09;;;;;;;16.70;10.70;;;;;;;8.14;87.01;98852.85;102344;1299;61801;-25
2022/11/02 02:05:40;;;;;;;18.50;11.80;;;;;;;8.20;87.13;98848.90;102037;1302;61825;-24
2022/11/02 02:08:08;;;;;;;23.30;12.80;;;;;;;8.07;88.76;98847.82;102007;1299;73729;-24
2022/11/02 02:10:36;;;;;;;23.30;11.50;;;;;;;7.97;91.90;98848.00;102190;1300;74845;-24
2022/11/02 02:13:07;;;;;;;31.30;13.90;;;;;;;8.32;92.15;98854.77;102413;1299;73845;-24
2022/11/02 02:15:41;;;;;;;25.60;14.80;;;;;;;8.63;91.36;98850.42;102400;1299;61926;-24
2022/11/02 02:18:13;;;;;;;25.90;16.50;;;;;;;8.64;90.85;98853.79;102108;1305;61781;-24
2022/11/02 02:20:43;;;;;;;23.30;12.30;;;;;;;8.35;92.87;98846.62;102078;1299;74820;-24
2022/11/02 02:23:31;;;;;;;24.90;14.30;;;;;;;8.66;92.55;98853.67;102272;1299;75553;-25
2022/11/02 02:26:30;;;;;;;23.60;14.00;;;;;;;8.91;90.84;98854.31;102321;1299;74270;-24
2022/11/02 02:29:03;;;;;;;19.20;12.50;;;;;;;8.72;90.98;98857.48;102300;1302;61774;-25
2022/11/02 02:31:33;;;;;;;21.30;11.30;;;;;;;8.54;91.82;98861.64;102336;1293;61139;-24
2022/11/02 02:34:28;;;;;;;19.60;12.30;;;;;;;8.73;91.73;98861.96;102347;1302;74891;-24
2022/11/02 02:37:09;;;;;;;25.50;15.10;;;;;;;8.78;91.09;98859.68;102328;1299;75876;-24
2022/11/02 02:39:40;;;;;;;28.60;15.10;;;;;;;8.74;91.44;98867.77;102041;1302;74347;-24
2022/11/02 02:42:34;;;;;;;27.00;14.50;;;;;;;8.61;92.12;98862.64;102328;1305;62009;-24
2022/11/02 02:45:18;;;;;;;29.30;14.80;;;;;;;8.60;92.86;98864.64;102194;1302;61729;-24
2022/11/02 02:48:04;;;;;;;28.10;14.40;;;;;;;8.81;91.96;98862.23;102378;1300;75405;-24
2022/11/02 02:50:35;;;;;;;26.80;14.40;;;;;;;8.70;91.95;98860.63;102346;1302;75860;-24
2022/11/02 02:53:03;;;;;;;24.40;13.70;;;;;;;8.72;92.22;98867.21;102211;1294;74363;-24
2022/11/02 02:55:32;;;;;;;21.90;9.90;;;;;;;8.62;92.73;98865.71;102394;1298;63951;-24
2022/11/02 02:58:00;;;;;;;24.60;13.80;;;;;;;8.85;91.88;98865.83;102368;1296;61797;-25
2022/11/02 03:00:27;;;;;;;22.80;13.50;;;;;;;8.99;90.97;98865.14;102187;1299;75526;-24
2022/11/02 03:03:01;;;;;;;23.20;13.70;;;;;;;8.79;91.87;98868.92;102186;1302;75587;-25
2022/11/02 03:05:33;;;;;;;23.80;13.00;;;;;;;8.67;92.35;98877.80;102089;1298;74158;-25
2022/11/02 03:08:07;;;;;;;22.10;13.80;;;;;;;8.85;92.38;98877.61;102055;1300;62144;-25
2022/11/02 03:10:51;;;;;;;24.70;13.50;;;;;;;9.13;90.74;98877.73;102224;1302;61062;-25
2022/11/02 03:13:28;;;;;;;27.40;15.10;;;;;;;9.04;90.59;98878.45;102070;1299;75426;-25
2022/11/02 03:15:58;;;;;;;29.00;15.70;;;;;;;8.89;91.35;98876.81;102159;1299;75782;-23
2022/11/02 03:18:53;;;;;;;23.60;13.00;;;;;;;8.86;92.07;98876.72;102128;1305;74244;-22
2022/11/02 03:21:37;;;;;;;21.20;11.90;;;;;;;9.18;90.84;98872.65;102236;1301;61872;-23
2022/11/02 03:24:18;;;;;;;27.50;13.70;;;;;;;9.22;89.92;98868.76;102276;1303;61933;-22
2022/11/02 03:26:54;;;;;;;25.20;14.70;;;;;;;9.14;90.50;98873.54;102269;1302;75343;-22
2022/11/02 03:29:31;;;;;;;23.90;12.90;;;;;;;9.00;91.09;98874.73;102378;1297;76258;-22
2022/11/02 03:32:09;;;;;;;24.00;14.20;;;;;;;9.10;90.90;98875.58;102131;1302;74098;-23
2022/11/02 03:34:45;;;;;;;27.20;13.70;;;;;;;9.27;90.53;98872.48;102223;1295;61926;-24
2022/11/02 03:37:18;;;;;;;29.00;14.90;;;;;;;9.27;90.17;98875.77;102339;1293;61703;-23
2022/11/02 03:39:50;;;;;;;22.50;13.30;;;;;;;9.14;90.89;98877.64;102135;1298;75486;-23
2022/11/02 03:42:22;;;;;;;22.50;12.10;;;;;;;9.09;91.28;98876.84;102062;1302;75664;-23
2022/11/02 03:45:00;;;;;;;24.50;14.30;;;;;;;9.56;89.37;98873.36;102049;1305;73272;-23
2022/11/02 03:47:29;;;;;;;31.70;15.10;;;;;;;9.66;88.55;98877.23;102364;1304;61350;-22
2022/11/02 03:49:58;;;;;;;30.00;15.80;;;;;;;9.47;89.06;98877.71;102364;1299;61916;-22
2022/11/02 03:52:28;;;;;;;32.60;16.00;;;;;;;9.25;90.03;98871.58;102373;1303;75597;-22
2022/11/02 03:55:16;;;;;;;21.50;12.80;;;;;;;9.13;91.30;98877.87;101916;1304;76017;-22
2022/11/02 03:57:48;;;;;;;28.70;15.70;;;;;;;9.48;89.64;98871.36;102259;1302;74159;-22
2022/11/02 04:00:22;;;;;;;26.40;13.80;;;;;;;9.51;89.44;98868.21;102208;1306;62282;-22
2022/11/02 04:03:01;;;;;;;29.70;15.20;;;;;;;9.52;88.96;98868.61;102363;1302;61690;-22
2022/11/02 04:05:31;;;;;;;27.30;13.80;;;;;;;9.18;90.53;98857.28;102173;1302;75458;-22
2022/11/02 04:08:19;;;;;;;29.00;14.00;;;;;;;9.33;90.91;98853.11;102368;1294;75647;-22
2022/11/02 04:16:24;;;;;;;30.00;14.30;;;;;;;9.41;89.39;98852.39;102356;1299;62002;-22
2022/11/02 04:34:53;;;;;;;24.20;13.50;;;;;;;9.75;88.19;98854.87;99153;1334;598726;-21
2022/11/02 04:40:07;;;;;;;28.00;13.30;;;;;;;9.87;86.61;98862.00;101281;1312;61861;-21
2022/11/02 04:42:34;;;;;;;36.60;15.60;;;;;;;9.74;86.85;98862.52;101098;1314;73814;-21
2022/11/02 04:45:01;;;;;;;31.40;15.40;;;;;;;9.53;87.72;98864.19;101262;1309;76185;-21
2022/11/02 04:47:29;;;;;;;22.90;13.40;;;;;;;9.45;88.47;98867.06;100613;1313;1153563;-22
2022/11/02 04:49:56;;;;;;;25.90;12.70;;;;;;;9.84;87.36;98873.67;101454;1309;62160;-21
2022/11/02 04:52:23;;;;;;;25.10;13.00;;;;;;;10.11;85.64;98870.99;101629;1309;62947;-21
2022/11/02 04:54:50;;;;;;;25.70;14.30;;;;;;;10.06;85.52;98872.45;101471;1307;75006;-21
2022/11/02 04:57:18;;;;;;;23.60;13.10;;;;;;;9.86;85.77;98870.05;101598;1309;76729;-22
2022/11/02 04:59:45;;;;;;;19.40;10.90;;;;;;;9.69;86.52;98872.15;101464;1312;75208;-21
2022/11/02 05:02:12;;;;;;;22.70;12.40;;;;;;;9.96;86.07;98871.04;101650;1307;62901;-21
2022/11/02 05:04:40;;;;;;;28.20;14.70;;;;;;;10.18;84.67;98870.56;101401;1312;62601;-21
2022/11/02 05:07:09;;;;;;;27.60;13.50;;;;;;;10.11;84.73;98872.38;101465;1309;75555;-21
2022/11/02 05:09:36;;;;;;;27.40;14.40;;;;;;;9.93;85.39;98870.55;101426;1311;76753;-21
2022/11/02 05:12:04;;;;;;;34.60;15.50;;;;;;;9.64;86.49;98868.88;101517;1302;75101;-22
2022/11/02 05:14:31;;;;;;;22.90;12.10;;;;;;;9.42;87.99;98868.38;101358;1310;64601;-21
2022/11/02 05:16:59;;;;;;;27.30;13.60;;;;;;;9.78;86.73;98876.05;101499;1307;62629;-21
2022/11/02 05:19:27;;;;;;;30.50;15.20;;;;;;;9.91;85.64;98876.40;101443;1307;75287;-21
2022/11/02 05:21:54;;;;;;;24.30;14.10;;;;;;;9.92;85.61;98880.00;101365;1304;76644;-21
2022/11/02 05:24:22;;;;;;;26.40;13.90;;;;;;;9.76;85.95;98881.13;101353;1310;74931;-22
2022/11/02 05:26:49;;;;;;;25.70;14.20;;;;;;;9.51;87.20;98879.63;101362;1308;62575;-21
2022/11/02 05:29:21;;;;;;;24.20;11.20;;;;;;;9.38;88.07;98884.75;101381;1311;63249;-21
2022/11/02 05:31:49;;;;;;;23.20;12.90;;;;;;;9.87;86.38;98887.88;101291;1310;75521;-21
2022/11/02 05:34:16;;;;;;;20.40;12.00;;;;;;;10.27;84.27;98887.24;101286;1310;76720;-21
2022/11/02 05:36:47;;;;;;;23.30;13.80;;;;;;;10.10;84.11;98891.19;101449;1312;75139;-21
2022/11/02 05:39:14;;;;;;;28.90;14.90;;;;;;;9.93;84.92;98897.27;101301;1310;62806;-21
2022/11/02 05:41:41;;;;;;;26.40;14.60;;;;;;;9.65;85.87;98899.13;101884;1302;61048;-22
2022/11/02 05:44:09;;;;;;;18.40;11.10;;;;;;;9.45;87.10;98900.71;101952;1300;75551;-22
2022/11/02 05:46:38;;;;;;;20.50;10.50;;;;;;;9.83;85.90;98908.66;102011;1297;76777;-22
2022/11/02 05:49:05;;;;;;;27.30;13.00;;;;;;;10.07;84.39;98912.10;101834;1305;75373;-22
2022/11/02 05:51:32;;;;;;;23.10;14.00;;;;;;;10.08;83.90;98912.84;101958;1302;63269;-23
2022/11/02 05:53:59;;;;;;;22.00;12.80;;;;;;;9.92;84.40;98915.55;101871;1304;62116;-23
2022/11/02 05:56:26;;;;;;;26.30;14.40;;;;;;;9.72;85.00;98916.82;102032;1302;75576;-23
2022/11/02 05:58:54;;;;;;;21.40;11.30;;;;;;;9.44;86.30;98915.86;102046;1292;76780;-23
2022/11/02 06:01:21;;;;;;;21.50;12.10;;;;;;;9.68;86.09;98915.91;102041;1305;73974;-23
2022/11/02 06:03:48;;;;;;;20.20;11.60;;;;;;;9.82;84.49;98913.90;102032;1301;62024;-23
2022/11/02 06:06:19;;;;;;;22.20;13.00;;;;;;;9.76;84.43;98916.45;102019;1301;62783;-23
2022/11/02 06:08:47;;;;;;;17.10;10.60;;;;;;;9.49;85.53;98918.08;101873;1301;74580;-25
2022/11/02 06:11:14;;;;;;;22.80;10.70;;;;;;;9.39;86.08;98919.88;102071;1305;76854;-25
2022/11/02 06:13:41;;;;;;;17.30;9.80;;;;;;;9.33;86.34;98916.73;102102;1294;74227;-26
2022/11/02 06:16:10;;;;;;;20.00;12.00;;;;;;;9.56;85.79;98913.20;102002;1302;62989;-26
2022/11/02 06:18:37;;;;;;;19.20;10.60;;;;;;;9.92;84.30;98918.82;101968;1299;61837;-26
2022/11/02 06:21:05;;;;;;;18.60;11.80;;;;;;;9.90;83.75;98916.20;101969;1304;74495;-26
2022/11/02 06:23:32;;;;;;;20.50;12.70;;;;;;;9.63;84.68;98911.91;102008;1305;75891;-26
2022/11/02 06:25:59;;;;;;;17.30;10.00;;;;;;;9.46;85.76;98917.83;101991;1302;74177;-23
2022/11/02 06:28:26;;;;;;;21.20;11.10;;;;;;;9.51;85.80;98917.94;101965;1302;61486;-23
2022/11/02 06:30:54;;;;;;;19.80;12.50;;;;;;;9.90;84.06;98916.23;102014;1304;63050;-22
2022/11/02 06:33:21;;;;;;;23.80;13.20;;;;;;;9.75;83.90;98919.35;101999;1302;75352;-23
2022/11/02 06:35:52;;;;;;;19.30;11.60;;;;;;;9.62;84.93;98916.70;101839;1295;76653;-22
2022/11/02 06:38:20;;;;;;;19.10;12.00;;;;;;;9.52;85.17;98921.85;105409;1300;75121;-23
2022/11/02 06:40:57;;;;;;;15.50;9.60;;;;;;;9.33;86.10;98923.80;105663;1295;63855;-24
2022/11/02 06:43:24;;;;;;;16.40;9.30;;;;;;;9.78;84.22;98925.70;105597;1298;60270;-23
2022/11/02 06:45:56;;;;;;;18.90;10.10;;;;;;;9.72;83.93;98923.39;105505;1299;72999;-23
2022/11/02 06:48:24;;;;;;;20.40;11.20;;;;;;;9.65;84.46;98925.87;105669;1298;76358;-24
2022/11/02 06:50:57;;;;;;;19.70;11.00;;;;;;;9.46;85.10;98928.20;105875;1291;73443;-24
2022/11/02 06:53:24;;;;;;;19.10;11.90;;;;;;;9.26;86.32;98929.02;105928;1291;63607;-24
2022/11/02 06:55:55;;;;;;;15.30;9.90;;;;;;;9.62;84.51;98928.34;105890;1292;62399;-24
2022/11/02 06:58:23;;;;;;;19.50;10.90;;;;;;;9.66;83.85;98928.35;105756;1295;74943;-24
2022/11/02 07:00:55;;;;;;;17.80;10.40;;;;;;;9.51;84.79;98930.57;105867;1292;76432;-24
2022/11/02 07:03:22;;;;;;;17.80;11.10;;;;;;;9.37;85.49;98932.20;105716;1294;73853;-24
2022/11/02 07:05:50;;;;;;;17.50;11.30;;;;;;;9.05;86.94;98929.60;105926;1285;62625;-24
2022/11/02 07:08:18;;;;;;;15.80;8.90;;;;;;;9.16;86.73;98933.14;105775;1295;60380;-24
2022/11/02 07:10:45;;;;;;;19.80;11.20;;;;;;;9.43;85.55;98932.75;105885;1288;75165;-24
2022/11/02 07:13:12;;;;;;;21.00;12.40;;;;;;;9.55;84.80;98930.80;105929;1291;74887;-24
2022/11/02 07:15:39;;;;;;;21.00;11.50;;;;;;;9.23;86.04;98931.55;105885;1290;73761;-24
2022/11/02 07:18:07;;;;;;;15.10;9.20;;;;;;;9.14;86.91;98936.16;105878;1295;61525;-24
2022/11/02 07:20:34;;;;;;;19.20;10.30;;;;;;;9.17;87.33;98937.86;105929;1285;62234;-24
2022/11/02 07:23:02;;;;;;;20.20;11.20;;;;;;;9.38;86.11;98934.65;105877;1279;75156;-23
2022/11/02 07:25:31;;;;;;;17.10;10.20;;;;;;;9.46;85.72;98932.46;105908;1291;75420;-24
2022/11/02 07:27:59;;;;;;;16.40;10.10;;;;;;;9.41;85.76;98929.41;105920;1292;74558;-24
2022/11/02 07:30:31;;;;;;;18.50;9.10;;;;;;;9.39;86.00;98930.34;105740;1299;61191;-24
2022/11/02 07:32:57;;;;;;;17.80;9.30;;;;;;;9.32;86.42;98933.95;105926;1293;61551;-23
2022/11/02 07:35:25;;;;;;;16.20;9.90;;;;;;;9.69;84.59;98931.27;105921;1291;75280;-24
2022/11/02 07:37:59;;;;;;;18.50;10.80;;;;;;;9.70;83.85;98936.54;105989;1289;75302;-24
2022/11/02 07:40:27;;;;;;;16.20;10.40;;;;;;;9.42;85.03;98943.23;105913;1292;74533;-24
2022/11/02 07:42:54;;;;;;;39.40;21.80;;;;;;;9.25;85.92;98945.45;105784;1294;60333;-24
2022/11/02 07:45:30;;;;;;;24.00;12.30;;;;;;;9.09;87.22;98941.59;105916;1290;62348;-24
2022/11/02 07:47:57;;;;;;;29.70;16.40;;;;;;;9.46;86.02;98947.59;105979;1291;74089;-24
2022/11/02 07:50:25;;;;;;;29.20;14.40;;;;;;;9.79;84.59;98949.69;106027;1292;75041;-24
2022/11/02 07:52:54;;;;;;;36.60;18.00;;;;;;;9.71;84.66;98950.36;105977;1292;73596;-24
2022/11/02 07:55:23;;;;;;;26.80;12.70;;;;;;;9.49;85.32;98946.47;105968;1291;61140;-24
2022/11/02 07:57:57;;;;;;;20.30;11.20;;;;;;;9.29;86.91;98951.38;105910;1292;62320;-24
2022/11/02 08:00:27;;;;;;;25.50;11.00;;;;;;;9.47;86.60;98952.17;105978;1292;73714;-24
2022/11/02 08:02:55;;;;;;;35.60;17.10;;;;;;;9.40;86.36;98954.66;105907;1291;75253;-24
2022/11/02 08:05:23;;;;;;;24.50;12.50;;;;;;;9.22;87.08;98954.84;105746;1291;74733;-24
2022/11/02 08:07:57;;;;;;;32.60;13.40;;;;;;;9.17;87.58;98953.10;105890;1292;61292;-24
2022/11/02 08:10:24;;;;;;;30.40;15.10;;;;;;;8.90;88.68;98953.43;105768;1295;62418;-24
2022/11/02 08:12:51;;;;;;;31.00;14.10;;;;;;;9.14;88.47;98953.88;106005;1292;73272;-24
2022/11/02 08:15:18;;;;;;;33.20;14.80;;;;;;;9.31;87.25;98960.88;105923;1291;75422;-24
2022/11/02 08:17:45;;;;;;;26.30;12.90;;;;;;;9.40;86.68;98963.31;105953;1290;74460;-24
2022/11/02 08:20:13;;;;;;;58.40;22.90;;;;;;;9.36;86.94;98965.87;105925;1291;62474;-24
2022/11/02 08:22:40;;;;;;;36.80;16.50;;;;;;;9.21;87.23;98968.56;105973;1292;60982;-24
2022/11/02 08:25:07;;;;;;;26.80;13.10;;;;;;;9.30;86.82;98966.69;106005;1292;74039;-24
2022/11/02 08:27:34;;;;;;;24.80;11.20;;;;;;;9.46;86.30;98965.08;105891;1292;75731;-24
2022/11/02 08:30:01;;;;;;;20.40;12.20;;;;;;;9.24;86.74;98960.73;105923;1288;75313;-24
2022/11/02 08:32:28;;;;;;;20.90;12.00;;;;;;;9.07;87.68;98959.45;106007;1292;61304;-24
2022/11/02 08:34:55;;;;;;;22.60;11.80;;;;;;;8.93;88.41;98959.29;105740;1295;61741;-24
2022/11/02 08:37:23;;;;;;;16.70;10.40;;;;;;;9.03;88.20;98959.88;105757;1295;72035;-24
2022/11/02 08:39:50;;;;;;;29.10;14.40;;;;;;;9.26;86.94;98956.54;105925;1292;76628;-24
2022/11/02 08:42:17;;;;;;;29.20;14.40;;;;;;;9.22;86.98;98965.71;105885;1295;74618;-26
2022/11/02 08:44:44;;;;;;;19.00;10.20;;;;;;;9.10;87.55;98960.75;106006;1292;61562;-24
2022/11/02 08:47:11;;;;;;;18.20;9.20;;;;;;;9.07;88.12;98962.87;105895;1288;61038;-24
2022/11/02 08:49:38;;;;;;;23.10;12.30;;;;;;;9.14;88.21;98958.73;105907;1295;76062;-24
2022/11/02 08:52:05;;;;;;;20.60;12.10;;;;;;;9.50;86.56;98954.95;106011;1282;76487;-24
2022/11/02 08:54:32;;;;;;;27.70;13.20;;;;;;;9.80;85.16;98959.69;105868;1291;71634;-24
2022/11/02 08:56:59;;;;;;;21.40;11.90;;;;;;;9.58;85.17;98960.19;105902;1291;62636;-24
2022/11/02 08:59:26;;;;;;;21.70;11.90;;;;;;;9.14;87.59;98958.22;105888;1292;60747;-24
2022/11/02 09:01:53;;;;;;;24.90;12.80;;;;;;;9.11;88.10;98956.38;105919;1284;76071;-24
2022/11/02 09:04:21;;;;;;;25.70;11.30;;;;;;;9.46;86.70;98961.80;105949;1290;76336;-24
2022/11/02 09:06:48;;;;;;;19.50;10.50;;;;;;;9.66;85.25;98961.61;105894;1295;73518;-24
2022/11/02 09:09:16;;;;;;;20.90;11.60;;;;;;;9.37;86.02;98958.66;105896;1292;61407;-24
2022/11/02 09:11:43;;;;;;;21.00;12.40;;;;;;;9.20;87.02;98957.39;106015;1288;60648;-24
2022/11/02 09:14:10;;;;;;;20.30;11.70;;;;;;;9.05;88.22;98964.39;106014;1292;76334;-24
2022/11/02 09:16:37;;;;;;;18.60;10.20;;;;;;;9.20;87.97;98961.69;105914;1284;76086;-24
2022/11/02 09:19:07;;;;;;;22.70;12.60;;;;;;;9.46;86.63;98961.13;106005;1285;75222;-24
2022/11/02 09:21:34;;;;;;;21.60;12.30;;;;;;;9.23;87.30;98961.50;105947;1290;62454;-24
2022/11/02 09:24:02;;;;;;;21.80;11.30;;;;;;;9.19;87.66;98964.79;105723;1295;62451;-24
2022/11/02 09:26:29;;;;;;;20.60;11.30;;;;;;;9.13;87.51;98962.78;105913;1292;75872;-24
2022/11/02 09:28:56;;;;;;;15.10;8.40;;;;;;;9.07;87.81;98964.61;105914;1292;74968;-24
2022/11/02 09:31:23;;;;;;;17.50;9.90;;;;;;;9.45;86.50;98964.14;105903;1291;75107;-24
2022/11/02 09:33:50;;;;;;;14.70;7.50;;;;;;;9.58;85.22;98957.38;105798;1295;62182;-24
2022/11/02 09:36:17;;;;;;;18.70;9.00;;;;;;;9.39;85.26;98954.87;105926;1292;62721;-24
2022/11/02 09:38:44;;;;;;;14.30;7.70;;;;;;;8.95;87.04;98965.02;105992;1292;75899;-24
2022/11/02 09:41:34;;;;;;;13.00;7.30;;;;;;;8.84;87.85;98965.83;105901;1284;75622;-24
2022/11/02 09:44:08;;;;;;;14.20;9.00;;;;;;;9.16;87.00;98956.64;105665;1288;74994;-24
2022/11/02 09:46:37;;;;;;;11.80;6.80;;;;;;;9.25;85.97;98952.70;105913;1291;62189;-24
2022/11/02 09:49:10;;;;;;;17.90;8.40;;;;;;;9.10;86.39;98951.06;105757;1295;61004;-24
2022/11/02 09:51:40;;;;;;;13.20;8.60;;;;;;;8.97;87.45;98957.56;105868;1296;74874;-24
2022/11/02 09:54:43;;;;;;;15.00;7.70;;;;;;;8.76;88.34;98956.02;105772;1291;76290;-24
2022/11/02 09:57:15;;;;;;;14.70;8.60;;;;;;;8.99;87.47;98958.13;105822;1292;73080;-24
2022/11/02 09:59:42;;;;;;;12.30;7.00;;;;;;;8.98;87.65;98955.59;105655;1288;62632;-24
2022/11/02 10:02:17;;;;;;;14.90;8.50;;;;;;;8.92;87.80;98952.97;105743;1295;62474;-24
2022/11/02 10:05:06;;;;;;;11.60;7.50;;;;;;;8.75;88.63;98962.19;105894;1295;75923;-24
2022/11/02 10:07:42;;;;;;;11.50;6.30;;;;;;;8.85;88.54;98961.60;105928;1284;75033;-24
2022/11/02 10:10:21;;;;;;;12.20;6.70;;;;;;;9.10;86.94;98960.45;105894;1291;73598;-24
2022/11/02 10:13:17;;;;;;;10.20;6.80;;;;;;;9.23;85.97;98960.98;105660;1298;62245;-24
2022/11/02 10:16:04;;;;;;;11.10;6.90;;;;;;;8.95;86.91;98955.48;105823;1295;62204;-23
2022/11/02 10:18:31;;;;;;;12.30;7.20;;;;;;;8.76;88.26;98958.79;105844;1288;76053;-24
2022/11/02 10:21:00;;;;;;;15.50;8.40;;;;;;;9.09;87.46;98957.56;105669;1290;76401;-24
2022/11/02 10:23:29;;;;;;;13.30;7.70;;;;;;;9.12;86.54;98946.80;105660;1296;74639;-24
2022/11/02 10:25:57;;;;;;;15.30;8.80;;;;;;;8.96;87.55;98953.52;105752;1294;62154;-24
2022/11/02 10:28:30;;;;;;;12.60;8.10;;;;;;;9.03;87.64;98957.99;105555;1297;60992;-24
2022/11/02 10:30:57;;;;;;;13.00;7.40;;;;;;;8.99;87.54;98957.98;105682;1293;75918;-24
2022/11/02 10:33:25;;;;;;;13.30;8.30;;;;;;;9.37;86.49;98954.91;105727;1292;74630;-24
2022/11/02 10:36:15;;;;;;;12.10;7.80;;;;;;;9.57;84.91;98949.55;105675;1292;74586;-24
2022/11/02 10:38:51;;;;;;;13.90;7.50;;;;;;;9.48;84.74;98948.44;105697;1295;62483;-24
2022/11/02 10:41:28;;;;;;;11.90;7.00;;;;;;;9.27;85.59;98946.27;105735;1288;61353;-24
2022/11/02 10:44:31;;;;;;;12.30;6.20;;;;;;;9.01;87.03;98951.70;105706;1291;75717;-24
2022/11/02 10:47:14;;;;;;;10.30;6.50;;;;;;;9.35;86.70;98954.20;105559;1292;75982;-24
2022/11/02 10:50:15;;;;;;;10.20;6.40;;;;;;;9.69;84.43;98952.56;105739;1294;73496;-24
2022/11/02 10:52:43;;;;;;;12.60;7.10;;;;;;;9.62;84.55;98957.64;105708;1293;62831;-24
2022/11/02 10:55:33;;;;;;;29.60;8.70;;;;;;;9.36;85.22;98960.70;105737;1287;62253;-24
2022/11/02 10:58:00;;;;;;;10.40;6.80;;;;;;;9.12;86.79;98958.04;105699;1296;75978;-24
2022/11/02 11:00:34;;;;;;;8.20;5.50;;;;;;;9.36;86.19;98961.52;105674;1292;76355;-24
2022/11/02 11:03:12;;;;;;;6.30;4.60;;;;;;;9.61;85.23;98958.59;105730;1292;74522;-24
2022/11/02 11:05:55;;;;;;;8.90;5.90;;;;;;;9.69;84.89;98959.30;105725;1292;62589;-24
2022/11/02 11:08:34;;;;;;;8.40;5.90;;;;;;;9.37;86.04;98957.30;105721;1294;61390;-24
2022/11/02 11:11:17;;;;;;;9.80;5.30;;;;;;;9.11;87.63;98954.23;105743;1295;74879;-24
2022/11/02 11:13:51;;;;;;;5.70;4.00;;;;;;;9.37;87.14;98957.99;105758;1294;75232;-24
2022/11/02 11:16:43;;;;;;;6.60;4.90;;;;;;;9.83;84.20;98953.16;105658;1294;73721;-24
2022/11/02 11:19:22;;;;;;;7.80;5.60;;;;;;;9.49;85.22;98953.41;105680;1295;62413;-24
2022/11/02 11:22:28;;;;;;;7.00;4.40;;;;;;;9.39;86.51;98955.90;105761;1294;62425;-24
2022/11/02 11:25:18;;;;;;;6.60;4.50;;;;;;;9.37;86.52;98951.77;105747;1287;74852;-25
2022/11/02 11:27:53;;;;;;;8.60;6.20;;;;;;;9.86;84.57;98954.17;105755;1287;76270;-24
2022/11/02 11:30:34;;;;;;;10.20;6.10;;;;;;;9.94;83.78;98952.84;105673;1288;73840;-24
2022/11/02 11:33:21;;;;;;;8.90;5.50;;;;;;;9.81;84.40;98950.20;105718;1295;61308;-24
2022/11/02 11:35:49;;;;;;;8.30;5.50;;;;;;;9.74;84.46;98945.58;105736;1286;62578;-24
2022/11/02 11:38:18;;;;;;;6.90;4.50;;;;;;;9.48;85.70;98949.31;105796;1287;76170;-24
2022/11/02 11:40:47;;;;;;;6.50;4.40;;;;;;;9.62;85.65;98949.97;105555;1295;76250;-24
2022/11/02 11:43:15;;;;;;;7.90;5.60;;;;;;;9.78;84.72;98938.66;105640;1295;74769;-24
2022/11/02 11:46:02;;;;;;;11.80;6.20;;;;;;;9.84;84.19;98941.48;105621;1288;62381;-24
2022/11/02 11:48:44;;;;;;;8.80;6.00;;;;;;;9.66;85.15;98937.55;105555;1296;62136;-24
2022/11/02 11:51:37;;;;;;;7.90;5.10;;;;;;;9.19;87.62;98937.77;105652;1297;75727;-24
2022/11/02 11:54:25;;;;;;;8.00;5.50;;;;;;;9.63;86.45;98937.05;105748;1295;76359;-24
2022/11/02 11:56:57;;;;;;;6.80;5.20;;;;;;;9.86;84.65;98933.17;105703;1290;76068;-24
2022/11/02 11:59:28;;;;;;;7.90;5.90;;;;;;;9.62;85.60;98934.58;105561;1290;62171;-24
2022/11/02 12:01:59;;;;;;;6.10;4.80;;;;;;;9.58;86.00;98931.44;105722;1288;61095;-24
2022/11/02 12:04:27;;;;;;;5.60;4.40;;;;;;;9.51;87.12;98933.46;105638;1293;75892;-24
2022/11/02 12:07:01;;;;;;;11.00;5.60;;;;;;;9.96;84.74;98936.00;105716;1287;76359;-24